Time,TemperatureF,DewpointF,PressureIn,WindDirection,WindDirectionDegrees,WindSpeedMPH,WindSpeedGustMPH,Humidity,HourlyPrecipIn,Conditions,Clouds,dailyrainin,SolarRadiationWatts/m^2,SoftwareType,DateUTC
2013-05-04 00:42:00,61.0,44.0,-100.00,ESE,122,4.0,8.0,53,-99.99,,,0.00,0.000000,,2013-05-04 07:42:00,
2013-05-04 00:52:00,61.0,44.0,-100.00,ESE,122,4.0,8.0,53,-99.99,,,0.00,0.000000,,2013-05-04 07:52:00,
2013-05-04 01:42:00,61.0,43.0,-100.00,SE,125,4.0,7.0,51,-99.99,,,0.00,0.000000,,2013-05-04 08:42:00,
2013-05-04 01:52:00,61.0,43.0,-100.00,SE,125,4.0,7.0,51,-99.99,,,0.00,0.000000,,2013-05-04 08:52:00,
2013-05-04 02:33:00,60.0,41.0,-100.00,NNE,15,3.0,5.0,50,-99.99,,,0.00,0.000000,,2013-05-04 09:33:00,
2013-05-04 03:33:00,58.0,42.0,-100.00,WNW,302,6.0,9.0,55,-99.99,,,0.00,0.000000,,2013-05-04 10:33:00,
2013-05-04 04:32:00,56.0,42.0,-100.00,NW,308,7.0,10.0,59,-99.99,,,0.00,0.000000,,2013-05-04 11:32:00,
2013-05-04 06:32:00,56.0,40.0,-100.00,WNW,282,4.0,7.0,55,-99.99,,,0.00,2.000000,,2013-05-04 13:32:00,
2013-05-04 07:32:00,58.0,42.0,-100.00,NE,43,3.0,5.0,56,-99.99,,,0.00,93.000000,,2013-05-04 14:32:00,
2013-05-04 08:11:00,58.0,42.0,-100.00,NE,43,3.0,5.0,56,-99.99,,,0.00,93.000000,,2013-05-04 15:11:00,
2013-05-04 08:33:00,60.0,40.0,-100.00,NW,312,5.0,10.0,48,0.00,,,0.00,292.000000,,2013-05-04 15:33:00,
2013-05-04 09:33:00,65.0,45.0,-100.00,NE,55,5.0,10.0,48,0.00,,,0.00,498.000000,,2013-05-04 16:33:00,
2013-05-04 10:12:00,65.0,45.0,-100.00,NE,55,5.0,10.0,48,0.00,,,0.00,498.000000,,2013-05-04 17:12:00,
2013-05-04 10:32:00,70.0,46.0,-100.00,NE,34,3.0,7.0,42,0.00,,,0.00,692.000000,,2013-05-04 17:32:00,
2013-05-04 11:01:00,70.0,46.0,-100.00,NE,34,3.0,7.0,42,0.00,,,0.00,692.000000,,2013-05-04 18:01:00,
2013-05-04 11:12:00,70.0,46.0,-100.00,NE,34,3.0,7.0,42,0.00,,,0.00,692.000000,,2013-05-04 18:12:00,
2013-05-04 11:32:00,75.0,45.0,-100.00,ENE,61,5.0,11.0,35,0.00,,,0.00,850.000000,,2013-05-04 18:32:00,
2013-05-04 11:42:00,75.0,45.0,-100.00,ENE,61,5.0,11.0,35,0.00,,,0.00,850.000000,,2013-05-04 18:42:00,
2013-05-04 11:52:00,75.0,45.0,-100.00,ENE,61,5.0,11.0,35,0.00,,,0.00,850.000000,,2013-05-04 18:52:00,
2013-05-04 12:01:00,75.0,45.0,-100.00,ENE,61,5.0,11.0,35,0.00,,,0.00,850.000000,,2013-05-04 19:01:00,
2013-05-04 12:11:00,75.0,45.0,-100.00,ENE,61,5.0,11.0,35,0.00,,,0.00,850.000000,,2013-05-04 19:11:00,
2013-05-04 12:32:00,78.0,42.0,-100.00,ENE,69,9.0,19.0,28,0.00,,,0.00,943.000000,,2013-05-04 19:32:00,
2013-05-04 12:42:00,78.0,42.0,-100.00,ENE,69,9.0,19.0,28,0.00,,,0.00,943.000000,,2013-05-04 19:42:00,
2013-05-04 12:52:00,78.0,42.0,-100.00,ENE,69,9.0,19.0,28,0.00,,,0.00,943.000000,,2013-05-04 19:52:00,
2013-05-04 13:02:00,78.0,42.0,-100.00,ENE,69,9.0,19.0,28,0.00,,,0.00,943.000000,,2013-05-04 20:02:00,
2013-05-04 13:11:00,78.0,42.0,-100.00,ENE,69,9.0,19.0,28,0.00,,,0.00,943.000000,,2013-05-04 20:11:00,
2013-05-04 13:42:00,80.0,37.0,-100.00,East,86,8.0,19.0,21,0.00,,,0.00,1013.000000,,2013-05-04 20:42:00,
2013-05-04 13:52:00,80.0,37.0,-100.00,East,86,8.0,19.0,21,0.00,,,0.00,1013.000000,,2013-05-04 20:52:00,
2013-05-04 14:01:00,80.0,37.0,-100.00,East,86,8.0,19.0,21,0.00,,,0.00,1013.000000,,2013-05-04 21:01:00,
2013-05-04 14:11:00,80.0,37.0,-100.00,East,86,8.0,19.0,21,0.00,,,0.00,1013.000000,,2013-05-04 21:11:00,
2013-05-04 14:33:00,81.0,37.0,-100.00,NNE,12,9.0,17.0,21,0.00,,,0.00,1000.000000,,2013-05-04 21:33:00,
2013-05-04 14:43:00,81.0,37.0,-100.00,NNE,12,9.0,17.0,21,0.00,,,0.00,1000.000000,,2013-05-04 21:43:00,
2013-05-04 14:53:00,81.0,37.0,-100.00,NNE,12,9.0,17.0,21,0.00,,,0.00,1000.000000,,2013-05-04 21:53:00,
2013-05-04 15:02:00,81.0,37.0,-100.00,NNE,12,9.0,17.0,21,0.00,,,0.00,1000.000000,,2013-05-04 22:02:00,
2013-05-04 15:12:00,81.0,37.0,-100.00,NNE,12,9.0,17.0,21,0.00,,,0.00,1000.000000,,2013-05-04 22:12:00,
2013-05-04 15:33:00,80.0,37.0,-100.00,NNW,347,11.0,24.0,21,0.00,,,-99.99,933.000000,,2013-05-04 22:33:00,
2013-05-04 15:42:00,80.0,37.0,-100.00,NNW,347,11.0,24.0,21,0.00,,,-99.99,933.000000,,2013-05-04 22:42:00,
2013-05-04 15:52:00,80.0,37.0,-100.00,NNW,347,11.0,24.0,21,0.00,,,-99.99,933.000000,,2013-05-04 22:52:00,
2013-05-04 16:02:00,80.0,37.0,-100.00,NNW,347,11.0,24.0,21,0.00,,,-99.99,933.000000,,2013-05-04 23:02:00,
2013-05-04 16:11:00,80.0,37.0,-100.00,NNW,347,11.0,24.0,21,0.00,,,-99.99,933.000000,,2013-05-04 23:11:00,
2013-05-04 16:42:00,81.0,36.0,-100.00,North,4,10.0,24.0,20,0.00,,,-99.99,818.000000,,2013-05-04 23:42:00,
2013-05-04 16:52:00,81.0,36.0,-100.00,North,4,10.0,24.0,20,0.00,,,-99.99,818.000000,,2013-05-04 23:52:00,
2013-05-04 17:01:00,81.0,36.0,-100.00,North,4,10.0,24.0,20,0.00,,,-99.99,818.000000,,2013-05-05 00:01:00,
2013-05-04 17:11:00,81.0,36.0,-100.00,North,4,10.0,24.0,20,0.00,,,-99.99,818.000000,,2013-05-05 00:11:00,
2013-05-04 18:32:00,79.0,32.0,-100.00,North,356,11.0,22.0,18,-99.99,,,0.00,476.000000,,2013-05-05 01:32:00,
2013-05-04 18:42:00,79.0,32.0,-100.00,North,356,11.0,22.0,18,-99.99,,,0.00,476.000000,,2013-05-05 01:42:00,
2013-05-04 18:52:00,79.0,32.0,-100.00,North,356,11.0,22.0,18,-99.99,,,0.00,476.000000,,2013-05-05 01:52:00,
2013-05-04 19:02:00,79.0,32.0,-100.00,North,356,11.0,22.0,18,-99.99,,,0.00,476.000000,,2013-05-05 02:02:00,
2013-05-04 19:11:00,79.0,32.0,-100.00,North,356,11.0,22.0,18,-99.99,,,0.00,476.000000,,2013-05-05 02:11:00,
2013-05-04 19:32:00,78.0,30.0,-100.00,North,350,11.0,19.0,17,0.00,,,0.00,278.000000,,2013-05-05 02:32:00,
2013-05-04 19:42:00,78.0,30.0,-100.00,North,350,11.0,19.0,17,0.00,,,0.00,278.000000,,2013-05-05 02:42:00,
2013-05-04 19:52:00,78.0,30.0,-100.00,North,350,11.0,19.0,17,0.00,,,0.00,278.000000,,2013-05-05 02:52:00,
2013-05-04 20:01:00,78.0,30.0,-100.00,North,350,11.0,19.0,17,0.00,,,0.00,278.000000,,2013-05-05 03:01:00,
2013-05-04 20:11:00,78.0,30.0,-100.00,North,350,11.0,19.0,17,0.00,,,0.00,278.000000,,2013-05-05 03:11:00,
2013-05-04 20:33:00,74.0,29.0,-100.00,North,3,9.0,18.0,19,0.00,,,0.00,85.000000,,2013-05-05 03:33:00,
2013-05-04 20:42:00,74.0,29.0,-100.00,North,3,9.0,18.0,19,0.00,,,0.00,85.000000,,2013-05-05 03:42:00,
2013-05-04 20:53:00,74.0,29.0,-100.00,North,3,9.0,18.0,19,0.00,,,0.00,85.000000,,2013-05-05 03:53:00,
2013-05-04 21:02:00,74.0,29.0,-100.00,North,3,9.0,18.0,19,0.00,,,0.00,85.000000,,2013-05-05 04:02:00,
2013-05-04 21:33:00,72.0,31.0,-100.00,North,1,8.0,17.0,22,-99.99,,,0.00,2.000000,,2013-05-05 04:33:00,
2013-05-04 21:43:00,72.0,31.0,-100.00,North,1,8.0,17.0,22,-99.99,,,0.00,2.000000,,2013-05-05 04:43:00,
2013-05-04 21:52:00,72.0,31.0,-100.00,North,1,8.0,17.0,22,-99.99,,,0.00,2.000000,,2013-05-05 04:52:00,
2013-05-04 22:42:00,69.0,30.0,-100.00,NE,51,6.0,13.0,23,-99.99,,,0.00,0.000000,,2013-05-05 05:42:00,
2013-05-04 22:52:00,69.0,30.0,-100.00,NE,51,6.0,13.0,23,-99.99,,,0.00,0.000000,,2013-05-05 05:52:00,
2013-05-04 23:01:00,69.0,30.0,-100.00,NE,51,6.0,13.0,23,-99.99,,,0.00,0.000000,,2013-05-05 06:01:00,
2013-05-04 23:11:00,69.0,30.0,-100.00,NE,51,6.0,13.0,23,-99.99,,,0.00,0.000000,,2013-05-05 06:11:00,
2013-05-04 23:42:00,69.0,31.0,-100.00,East,91,7.0,11.0,24,0.00,,,0.00,0.000000,,2013-05-05 06:42:00,
2013-05-04 23:52:00,69.0,31.0,-100.00,East,91,7.0,11.0,24,0.00,,,0.00,0.000000,,2013-05-05 06:52:00,